createdAt,value
2018-12-29T00:03:25.062Z,1.98
2018-12-29T00:06:34.146Z,1.98
2018-12-29T00:12:16.846Z,1.97
2018-12-29T00:18:13.920Z,1.98
2018-12-29T00:21:34.786Z,2.01
2018-12-29T00:23:54.532Z,1.99
2018-12-29T00:27:02.150Z,1.99
2018-12-29T00:29:32.284Z,1.98
2018-12-29T00:35:09.694Z,1.97
2018-12-29T00:37:39.578Z,1.97
2018-12-29T00:40:29.131Z,1.99
2018-12-29T00:45:59.578Z,2.00
2018-12-29T00:48:30.711Z,2.00
2018-12-29T00:51:00.510Z,2.00
2018-12-29T00:53:30.348Z,2.00
2018-12-29T00:56:00.043Z,2.00
2018-12-29T00:58:29.759Z,2.00
2018-12-29T01:01:18.773Z,2.01
2018-12-29T01:03:48.643Z,1.99
2018-12-29T01:06:37.612Z,1.99
2018-12-29T01:09:28.158Z,2.00
2018-12-29T01:11:58.217Z,1.99
2018-12-29T01:14:47.291Z,1.97
2018-12-29T01:17:17.069Z,1.96
2018-12-29T01:19:46.908Z,1.96
2018-12-29T01:22:16.644Z,1.97
2018-12-29T01:25:05.742Z,1.97
2018-12-29T01:27:35.617Z,1.97
2018-12-29T01:30:05.948Z,1.98
2018-12-29T01:32:55.043Z,1.97
2018-12-29T01:35:25.273Z,1.98
2018-12-29T01:37:55.024Z,1.98
2018-12-29T01:40:44.048Z,1.97
2018-12-29T01:43:13.839Z,1.99
2018-12-29T01:49:09.055Z,1.97
2018-12-29T01:51:44.085Z,1.97
2018-12-29T01:54:33.061Z,1.97
2018-12-29T01:57:03.018Z,1.96
2018-12-29T01:59:32.781Z,1.96
2018-12-29T02:02:02.463Z,1.96
2018-12-29T02:07:45.871Z,1.95
2018-12-29T02:10:15.765Z,1.94
2018-12-29T02:13:04.780Z,1.93
2018-12-29T02:15:34.625Z,1.93
2018-12-29T02:18:05.460Z,1.94
2018-12-29T02:20:35.310Z,1.92
2018-12-29T02:23:24.353Z,1.94
2018-12-29T02:25:54.317Z,1.93
2018-12-29T02:28:24.038Z,1.90
2018-12-29T02:31:12.849Z,1.90
2018-12-29T02:33:42.570Z,1.88
2018-12-29T02:36:31.325Z,1.85
2018-12-29T02:39:01.062Z,1.82
2018-12-29T02:41:31.079Z,1.81
2018-12-29T02:44:19.817Z,1.82
2018-12-29T02:46:49.632Z,1.82
2018-12-29T02:49:19.333Z,1.80
2018-12-29T02:52:08.364Z,1.78
2018-12-29T02:54:38.141Z,1.78
2018-12-29T02:57:07.893Z,1.78
2018-12-29T02:59:56.915Z,1.77
2018-12-29T03:03:05.978Z,1.77
2018-12-29T03:05:36.333Z,1.78
2018-12-29T03:08:25.410Z,1.80
2018-12-29T03:10:55.324Z,1.81
2018-12-29T03:13:25.224Z,1.83
2018-12-29T03:15:55.339Z,1.77
2018-12-29T03:18:44.469Z,1.76
2018-12-29T03:21:33.385Z,1.78
2018-12-29T03:24:03.194Z,1.77
2018-12-29T03:26:52.282Z,1.76
2018-12-29T03:29:22.208Z,1.75
2018-12-29T03:31:51.983Z,1.72
2018-12-29T03:35:00.915Z,1.74
2018-12-29T03:37:31.768Z,1.73
2018-12-29T03:40:01.499Z,1.70
2018-12-29T03:42:50.240Z,1.71
2018-12-29T03:45:20.045Z,1.70
2018-12-29T03:47:50.110Z,1.69
2018-12-29T03:50:19.804Z,1.68
2018-12-29T03:52:51.742Z,1.66
2018-12-29T03:55:40.841Z,1.64
2018-12-29T03:58:10.923Z,1.61
2018-12-29T04:01:12.270Z,1.59
2018-12-29T04:03:31.580Z,1.59
2018-12-29T04:06:01.288Z,1.57
2018-12-29T04:09:08.949Z,1.53
2018-12-29T04:11:38.710Z,1.53
2018-12-29T04:14:08.476Z,1.54
2018-12-29T04:16:57.619Z,1.52
2018-12-29T04:19:27.416Z,1.48
2018-12-29T04:21:58.010Z,1.43
2018-12-29T04:24:47.304Z,1.43
2018-12-29T04:30:05.886Z,1.45
2018-12-29T04:32:54.697Z,1.43
2018-12-29T04:35:24.523Z,1.39
2018-12-29T04:37:54.291Z,1.40
2018-12-29T04:40:43.354Z,1.40
2018-12-29T04:43:13.088Z,1.34
2018-12-29T04:46:05.204Z,1.31
2018-12-29T04:48:33.478Z,1.33
2018-12-29T04:51:22.492Z,1.39
2018-12-29T04:54:11.676Z,1.39
2018-12-29T04:56:41.441Z,1.39
2018-12-29T05:02:05.227Z,1.39
2018-12-29T05:04:35.023Z,1.38
2018-12-29T05:07:16.561Z,1.39
2018-12-29T05:09:58.462Z,1.39
2018-12-29T05:12:47.189Z,1.35
2018-12-29T05:15:18.665Z,1.34
2018-12-29T05:18:07.765Z,1.32
2018-12-29T05:26:25.960Z,1.27
2018-12-29T05:29:34.985Z,1.19
2018-12-29T05:32:07.392Z,1.10
2018-12-29T05:34:56.172Z,1.06
2018-12-29T05:37:25.944Z,1.01
2018-12-29T05:39:55.689Z,0.99
2018-12-29T05:45:33.139Z,0.98
2018-12-29T05:48:02.956Z,1.00
2018-12-29T05:50:52.012Z,0.97
2018-12-29T05:53:21.743Z,0.95
2018-12-29T05:55:51.476Z,0.95
2018-12-29T05:58:21.189Z,0.93
2018-12-29T06:01:10.369Z,0.92
2018-12-29T06:03:59.293Z,0.92
2018-12-29T06:06:31.531Z,0.87
2018-12-29T06:09:20.276Z,0.87
2018-12-29T06:11:50.079Z,0.85
2018-12-29T06:14:19.859Z,0.87
2018-12-29T06:17:01.446Z,0.85
2018-12-29T06:19:43.930Z,0.85
2018-12-29T06:22:13.650Z,0.85
2018-12-29T06:25:02.728Z,0.87
2018-12-29T06:27:32.425Z,0.85
2018-12-29T06:30:02.516Z,0.84
2018-12-29T06:32:34.113Z,0.83
2018-12-29T06:35:22.839Z,0.83
2018-12-29T06:38:11.638Z,0.85
2018-12-29T06:41:00.737Z,0.80
2018-12-29T06:46:39.422Z,0.77
2018-12-29T06:49:09.386Z,0.78
2018-12-29T06:51:39.258Z,0.79
2018-12-29T06:54:28.109Z,0.78
2018-12-29T07:02:53.618Z,0.76
2018-12-29T07:05:23.471Z,0.78
2018-12-29T07:07:53.227Z,0.74
2018-12-29T07:10:41.946Z,0.77
2018-12-29T07:13:12.138Z,0.77
2018-12-29T07:15:42.095Z,0.80
2018-12-29T07:18:31.147Z,0.81
2018-12-29T07:21:01.377Z,0.83
2018-12-29T07:23:31.187Z,0.80
2018-12-29T07:26:20.219Z,0.82
2018-12-29T07:28:51.137Z,0.83
2018-12-29T07:31:21.090Z,0.84
2018-12-29T07:34:30.394Z,0.79
2018-12-29T07:37:00.426Z,0.83
2018-12-29T07:45:32.853Z,0.79
2018-12-29T07:48:13.495Z,0.79
2018-12-29T07:50:43.289Z,0.82
2018-12-29T07:56:46.690Z,0.80
2018-12-29T07:59:28.912Z,0.84
2018-12-29T08:02:09.859Z,0.83
2018-12-29T08:07:49.390Z,0.81
2018-12-29T08:10:38.869Z,0.85
2018-12-29T08:13:29.511Z,0.83
2018-12-29T08:16:18.249Z,0.81
2018-12-29T08:25:22.923Z,0.78
2018-12-29T08:27:52.649Z,0.74
2018-12-29T08:30:22.364Z,0.75
2018-12-29T08:33:05.012Z,0.77
2018-12-29T08:35:35.729Z,0.76
2018-12-29T08:38:28.437Z,0.74
2018-12-29T08:40:59.454Z,0.75
2018-12-29T08:43:48.596Z,0.76
2018-12-29T08:46:37.353Z,0.76
2018-12-29T08:49:07.589Z,0.74
2018-12-29T08:51:56.599Z,0.72
2018-12-29T08:54:26.761Z,0.73
2018-12-29T08:56:56.624Z,0.74
2018-12-29T08:59:46.288Z,0.75
2018-12-29T09:08:13.765Z,0.77
2018-12-29T09:11:02.433Z,0.76
2018-12-29T09:13:32.335Z,0.78
2018-12-29T09:16:41.402Z,0.79
2018-12-29T09:22:06.845Z,0.80
2018-12-29T09:24:55.680Z,0.81
2018-12-29T09:27:25.660Z,0.84
2018-12-29T09:29:55.406Z,0.87
2018-12-29T09:32:44.512Z,0.89
2018-12-29T09:35:14.273Z,0.93
2018-12-29T09:37:44.057Z,0.94
2018-12-29T09:40:13.843Z,0.97
2018-12-29T09:46:10.622Z,0.98
2018-12-29T09:48:40.382Z,1.00
2018-12-29T09:51:48.326Z,1.02
2018-12-29T09:57:11.586Z,1.02
2018-12-29T10:00:00.571Z,0.98
2018-12-29T10:02:32.450Z,0.98
2018-12-29T10:05:02.644Z,1.01
2018-12-29T10:10:38.929Z,0.98
2018-12-29T10:16:09.808Z,0.97
2018-12-29T10:18:58.553Z,0.97
2018-12-29T10:21:28.262Z,1.00
2018-12-29T10:24:01.103Z,1.03
2018-12-29T10:26:50.165Z,1.06
2018-12-29T10:29:31.665Z,1.07
2018-12-29T10:31:51.462Z,1.09
2018-12-29T10:37:29.062Z,1.08
2018-12-29T10:40:38.647Z,1.11
2018-12-29T10:43:08.648Z,1.13
2018-12-29T10:45:38.448Z,1.12
2018-12-29T10:48:08.561Z,1.12
2018-12-29T10:54:08.320Z,1.11
2018-12-29T10:56:38.159Z,1.07
2018-12-29T10:59:46.171Z,1.06
2018-12-29T11:02:16.245Z,1.06
2018-12-29T11:04:46.594Z,1.07
2018-12-29T11:07:35.996Z,1.10
2018-12-29T11:10:06.581Z,1.15
2018-12-29T11:13:07.691Z,1.21
2018-12-29T11:18:24.479Z,1.22
2018-12-29T11:20:54.258Z,1.20
2018-12-29T11:23:43.385Z,1.24
2018-12-29T11:34:40.173Z,1.53
2018-12-29T11:37:12.802Z,1.71
2018-12-29T11:40:02.328Z,1.83
2018-12-29T11:42:43.796Z,1.90
2018-12-29T11:45:04.684Z,1.91
2018-12-29T11:47:53.883Z,1.90
2018-12-29T11:50:23.691Z,1.86
2018-12-29T11:52:53.521Z,1.80
2018-12-29T11:55:43.362Z,1.86
2018-12-29T12:00:56.058Z,1.96
2018-12-29T12:03:44.874Z,1.91
2018-12-29T12:06:33.476Z,1.92
2018-12-29T12:09:03.308Z,1.91
2018-12-29T12:11:52.230Z,1.85
2018-12-29T12:14:22.089Z,1.84
2018-12-29T12:16:54.409Z,1.81
2018-12-29T12:19:43.720Z,1.89
2018-12-29T12:22:13.949Z,1.97
2018-12-29T12:25:02.917Z,1.93
2018-12-29T12:27:32.808Z,1.94
2018-12-29T12:30:04.397Z,1.97
2018-12-29T12:32:55.931Z,1.85
2018-12-29T12:38:46.477Z,1.86
2018-12-29T12:41:16.419Z,1.82
2018-12-29T12:43:46.088Z,1.82
2018-12-29T12:49:35.471Z,1.67
2018-12-29T12:52:05.207Z,1.59
2018-12-29T12:54:54.397Z,1.56
2018-12-29T13:00:44.894Z,1.47
2018-12-29T13:09:00.361Z,1.38
2018-12-29T13:11:30.420Z,1.39
2018-12-29T13:14:00.697Z,1.43
2018-12-29T13:19:56.668Z,1.58
2018-12-29T13:25:35.372Z,1.67
2018-12-29T13:28:05.139Z,1.65
2018-12-29T13:33:32.595Z,1.54
2018-12-29T13:36:40.435Z,1.49
2018-12-29T13:39:28.957Z,1.45
2018-12-29T13:41:58.814Z,1.43
2018-12-29T13:44:47.636Z,1.45
2018-12-29T13:50:19.256Z,1.47
2018-12-29T13:55:45.153Z,1.43
2018-12-29T13:58:15.454Z,1.43
2018-12-29T14:01:04.182Z,1.39
2018-12-29T14:03:34.356Z,1.38
2018-12-29T14:06:04.469Z,1.30
2018-12-29T14:08:53.898Z,1.22
2018-12-29T14:14:00.353Z,1.24
2018-12-29T14:16:49.100Z,1.22
2018-12-29T14:19:19.398Z,1.17
2018-12-29T14:22:08.488Z,1.13
2018-12-29T14:27:45.585Z,1.07
2018-12-29T14:30:27.295Z,1.05
2018-12-29T14:33:14.622Z,1.06
2018-12-29T14:35:44.531Z,1.04
2018-12-29T14:38:34.294Z,1.03
2018-12-29T14:41:25.092Z,1.03
2018-12-29T14:43:54.826Z,1.05
2018-12-29T14:46:46.249Z,1.04
2018-12-29T14:49:49.681Z,1.02
2018-12-29T14:55:41.839Z,0.96
2018-12-29T15:01:00.468Z,1.02
2018-12-29T15:03:30.207Z,1.02
2018-12-29T15:06:19.150Z,0.98
2018-12-29T15:08:48.963Z,0.98
2018-12-29T15:11:19.698Z,0.97
2018-12-29T15:13:53.358Z,0.97
2018-12-29T15:16:23.304Z,0.97
2018-12-29T15:19:12.056Z,0.98
2018-12-29T15:21:44.111Z,0.98
2018-12-29T15:24:13.930Z,0.99
2018-12-29T15:29:43.277Z,0.97
2018-12-29T15:38:19.140Z,1.02
2018-12-29T15:41:10.199Z,1.04
2018-12-29T15:43:40.369Z,1.08
2018-12-29T15:46:10.279Z,1.10
2018-12-29T15:48:59.121Z,1.12
2018-12-29T15:51:30.645Z,1.13
2018-12-29T15:54:00.553Z,1.14
2018-12-29T15:56:42.269Z,1.15
2018-12-29T15:59:12.024Z,1.14
2018-12-29T16:02:01.063Z,1.11
2018-12-29T16:04:31.432Z,1.10
2018-12-29T16:10:20.988Z,1.05
2018-12-29T16:13:07.447Z,1.07
2018-12-29T16:15:25.728Z,1.08
2018-12-29T16:17:55.492Z,1.09
2018-12-29T16:20:25.359Z,1.09
2018-12-29T16:26:01.230Z,1.09
2018-12-29T16:28:31.216Z,1.08
2018-12-29T16:31:19.988Z,1.07
2018-12-29T16:36:44.948Z,0.97
2018-12-29T16:39:33.840Z,0.93
2018-12-29T16:42:22.904Z,0.92
2018-12-29T16:45:12.211Z,0.88
2018-12-29T16:48:02.207Z,0.82
2018-12-29T16:50:31.987Z,0.81
2018-12-29T16:59:26.478Z,0.83
2018-12-29T17:07:41.947Z,0.79
2018-12-29T17:10:30.885Z,0.78
2018-12-29T17:13:01.765Z,0.77
2018-12-29T17:15:31.694Z,0.77
2018-12-29T17:18:05.442Z,0.73
2018-12-29T17:20:36.366Z,0.71
2018-12-29T17:23:25.808Z,0.72
2018-12-29T17:25:55.681Z,0.74
2018-12-29T17:28:46.787Z,0.72
2018-12-29T17:31:17.384Z,0.72
2018-12-29T17:37:13.743Z,0.70
2018-12-29T17:39:45.449Z,0.74
2018-12-29T17:51:10.525Z,0.82
2018-12-29T17:57:03.230Z,0.83
2018-12-29T18:05:52.784Z,0.90
2018-12-29T18:08:41.974Z,0.94
2018-12-29T18:11:30.992Z,0.95
2018-12-29T18:14:01.115Z,0.98
2018-12-29T18:16:42.740Z,1.01
2018-12-29T18:19:22.173Z,1.01
2018-12-29T18:22:31.530Z,1.04
2018-12-29T18:28:46.222Z,1.06
2018-12-29T18:34:00.304Z,1.04
2018-12-29T18:36:49.341Z,1.03
2018-12-29T18:39:24.388Z,1.03
2018-12-29T18:42:13.417Z,1.05
2018-12-29T18:45:22.835Z,1.04
2018-12-29T18:54:19.864Z,1.06
2018-12-29T18:57:22.543Z,1.08
2018-12-29T18:59:43.677Z,1.07
2018-12-29T19:02:32.865Z,1.07
2018-12-29T19:05:02.782Z,1.08
2018-12-29T19:07:35.323Z,1.06
2018-12-29T19:10:43.576Z,1.08
2018-12-29T19:16:30.088Z,1.06
2018-12-29T19:19:21.471Z,1.08
2018-12-29T19:22:13.008Z,1.10
2018-12-29T19:24:42.775Z,1.12
2018-12-29T19:27:53.566Z,1.15
2018-12-29T19:33:19.368Z,1.20
2018-12-29T19:35:50.773Z,1.25
2018-12-29T19:38:22.459Z,1.29
2018-12-29T19:44:18.482Z,1.31
2018-12-29T19:46:48.969Z,1.34
2018-12-29T19:49:53.556Z,1.34
2018-12-29T19:52:09.339Z,1.37
2018-12-29T19:54:39.098Z,1.29
2018-12-29T19:57:10.572Z,1.17
2018-12-29T20:00:00.193Z,1.09
2018-12-29T20:02:43.170Z,1.01
2018-12-29T20:08:45.636Z,0.95
2018-12-29T20:11:34.439Z,0.93
2018-12-29T20:14:05.714Z,0.90
2018-12-29T20:17:08.793Z,0.90
2018-12-29T20:22:46.812Z,0.91
2018-12-29T20:25:58.798Z,0.94
2018-12-29T20:28:42.092Z,0.95
2018-12-29T20:31:12.699Z,0.91
2018-12-29T20:37:34.537Z,0.95
2018-12-29T20:40:42.081Z,0.95
2018-12-29T20:43:12.429Z,0.96
2018-12-29T20:46:01.847Z,1.00
2018-12-29T20:48:32.002Z,1.00
2018-12-29T20:51:41.392Z,0.98
2018-12-29T20:54:31.253Z,0.98
2018-12-29T20:57:20.173Z,0.99
2018-12-29T20:59:52.192Z,1.01
2018-12-29T21:02:32.207Z,1.04
2018-12-29T21:05:08.012Z,1.02
2018-12-29T21:07:37.835Z,1.03
2018-12-29T21:10:27.314Z,1.06
2018-12-29T21:12:57.410Z,1.05
2018-12-29T21:18:37.667Z,1.06
2018-12-29T21:27:01.346Z,1.08
2018-12-29T21:29:34.204Z,1.10
2018-12-29T21:32:16.027Z,1.10
2018-12-29T21:35:03.569Z,1.09
2018-12-29T21:37:52.329Z,1.11
2018-12-29T21:40:25.536Z,1.13
2018-12-29T21:43:14.650Z,1.12
2018-12-29T21:46:03.507Z,1.14
2018-12-29T21:48:33.594Z,1.15
2018-12-29T21:51:22.745Z,1.14
2018-12-29T21:53:52.579Z,1.13
2018-12-29T21:57:02.243Z,1.11
2018-12-29T22:02:59.909Z,1.14
2018-12-29T22:05:48.646Z,1.13
2018-12-29T22:08:37.668Z,1.16
2018-12-29T22:17:26.972Z,1.13
2018-12-29T22:19:56.948Z,1.11
2018-12-29T22:22:47.914Z,1.11
2018-12-29T22:25:17.716Z,1.09
2018-12-29T22:31:11.022Z,1.12
2018-12-29T22:33:52.864Z,1.11
2018-12-29T22:39:12.442Z,1.13
2018-12-29T22:41:42.409Z,1.15
2018-12-29T22:44:12.122Z,1.14
2018-12-29T22:47:01.368Z,1.14
2018-12-29T22:49:50.137Z,1.13
2018-12-29T22:52:53.341Z,1.15
2018-12-29T22:58:08.709Z,1.16
2018-12-29T23:03:35.251Z,1.14
2018-12-29T23:06:24.479Z,1.14
2018-12-29T23:09:13.317Z,1.11
2018-12-29T23:14:54.055Z,1.15
2018-12-29T23:18:15.654Z,1.16
2018-12-29T23:20:35.006Z,1.16
2018-12-29T23:23:26.574Z,1.15
2018-12-29T23:25:58.209Z,1.13
2018-12-29T23:28:48.181Z,1.11
2018-12-29T23:31:18.017Z,1.08
2018-12-29T23:33:47.802Z,1.09
2018-12-29T23:36:19.301Z,1.08
2018-12-29T23:38:48.993Z,1.10
2018-12-29T23:41:57.995Z,1.09
2018-12-29T23:44:28.060Z,1.14
2018-12-29T23:46:58.130Z,1.13
2018-12-29T23:49:29.845Z,1.13
2018-12-29T23:51:59.966Z,1.15
2018-12-29T23:54:29.724Z,1.16
2018-12-29T23:57:20.419Z,1.19
